Time;durP1;ratioP1;P1;durP2;ratioP2;P2;SDS_P1;SDS_P2;PMS_P1;PMS_P2;Temp;Humidity;BMP_temperature;BMP_pressure;BME280_temperature;BME280_humidity;BME280_pressure;Samples;Min_cycle;Max_cycle;Signal;HPM_P1;HPM_P2
2023/10/31 00:01:46;;;;;;;;;3.00;1.00;;;;;12.24;72.61;99525.97;5079427;28;45434;-77
2023/10/31 00:04:11;;;;;;;;;1.00;1.00;;;;;12.20;72.57;99521.81;5056166;28;45530;-77
2023/10/31 00:06:39;;;;;;;;;5.00;1.00;;;;;12.21;73.12;99526.13;5059555;28;50283;-77
2023/10/31 00:09:04;;;;;;;;;2.00;1.25;;;;;12.21;73.01;99529.59;5060173;28;45268;-77
2023/10/31 00:11:29;;;;;;;;;4.75;1.75;;;;;12.21;72.79;99534.00;5061552;28;45300;-76
2023/10/31 00:13:55;;;;;;;;;4.25;1.25;;;;;12.21;73.32;99520.91;5082268;28;45367;-77
2023/10/31 00:16:20;;;;;;;;;2.00;1.25;;;;;12.21;72.96;99516.47;5077844;28;73316;-76
2023/10/31 00:18:45;;;;;;;;;2.25;1.75;;;;;12.22;73.44;99520.81;5082545;28;45269;-76
2023/10/31 00:21:11;;;;;;;;;3.50;1.00;;;;;12.23;72.85;99525.13;5080162;28;73708;-76
2023/10/31 00:23:43;;;;;;;;;2.00;1.00;;;;;12.18;73.53;99516.63;5060665;28;74832;-76
2023/10/31 00:26:09;;;;;;;;;3.50;1.00;;;;;12.24;73.06;99523.34;5058851;28;45379;-77
2023/10/31 00:28:35;;;;;;;;;5.00;2.00;;;;;12.25;73.11;99520.66;5064713;28;45408;-76
2023/10/31 00:31:00;;;;;;;;;47.75;35.75;;;;;12.23;73.23;99527.75;5060944;28;45272;-76
2023/10/31 00:33:26;;;;;;;;;11.50;10.00;;;;;12.25;73.29;99527.66;5064598;28;45531;-76
2023/10/31 00:35:51;;;;;;;;;6.50;5.75;;;;;12.23;73.23;99513.78;5077536;28;45565;-76
2023/10/31 00:38:17;;;;;;;;;3.75;2.00;;;;;12.25;73.37;99527.66;5062479;28;68300;-76
2023/10/31 00:40:42;;;;;;;;;1.00;1.00;;;;;12.25;73.07;99527.66;5080188;28;66467;-76
2023/10/31 00:43:07;;;;;;;;;0.00;0.00;;;;;12.22;72.82;99520.81;5065058;28;72145;-76
2023/10/31 00:45:33;;;;;;;;;2.00;1.00;;;;;12.24;73.00;99536.47;5077103;28;72025;-76
2023/10/31 00:47:58;;;;;;;;;4.00;1.00;;;;;12.20;73.00;99530.53;5080378;28;45450;-76
2023/10/31 00:50:23;;;;;;;;;0.00;0.00;;;;;12.21;72.94;99532.22;5069498;28;69923;-76
2023/10/31 00:52:49;;;;;;;;;0.50;0.50;;;;;12.21;72.97;99531.38;5080252;28;75921;-76
2023/10/31 00:55:14;;;;;;;;;3.00;1.00;;;;;12.22;72.83;99530.47;5078188;28;71566;-76
2023/10/31 00:57:41;;;;;;;;;6.00;1.75;;;;;12.22;73.13;99538.34;5058851;28;45845;-76
2023/10/31 01:00:08;;;;;;;;;2.75;2.00;;;;;12.20;73.04;99546.28;5080967;28;45343;-77
2023/10/31 01:02:33;;;;;;;;;2.00;1.00;;;;;12.17;72.85;99545.59;5081836;28;46244;-74
2023/10/31 01:04:59;;;;;;;;;1.00;1.00;;;;;12.17;73.39;99540.34;5078611;28;67204;-75
2023/10/31 01:07:24;;;;;;;;;0.50;0.00;;;;;12.15;73.34;99541.28;5078194;28;67621;-74
2023/10/31 01:09:49;;;;;;;;;2.75;1.00;;;;;12.14;73.07;99543.97;5080895;28;60359;-75
2023/10/31 01:12:15;;;;;;;;;4.00;2.00;;;;;12.14;73.31;99539.56;5062112;28;72136;-75
2023/10/31 01:14:40;;;;;;;;;1.00;1.00;;;;;12.12;73.20;99543.22;5077726;28;46005;-75
2023/10/31 01:17:05;;;;;;;;;4.00;1.00;;;;;12.11;73.20;99541.50;5079420;28;45295;-75
2023/10/31 01:19:31;;;;;;;;;1.00;0.75;;;;;12.11;72.90;99552.84;5063713;28;45300;-75
2023/10/31 01:21:56;;;;;;;;;2.00;1.00;;;;;12.07;73.26;99546.06;5061446;28;45818;-75
2023/10/31 01:24:23;;;;;;;;;2.00;1.00;;;;;12.09;72.79;99543.34;5077813;28;45396;-75
2023/10/31 01:26:48;;;;;;;;;1.00;1.00;;;;;12.09;72.98;99543.34;5055969;28;45421;-75
2023/10/31 01:29:14;;;;;;;;;2.50;1.00;;;;;12.07;72.89;99553.91;5081809;28;45318;-75
2023/10/31 01:31:41;;;;;;;;;3.00;2.00;;;;;12.07;72.84;99538.19;5076281;28;46075;-74
2023/10/31 01:34:06;;;;;;;;;1.00;1.00;;;;;12.04;73.21;99546.25;5060060;28;45403;-74
2023/10/31 01:36:32;;;;;;;;;4.50;1.75;;;;;12.03;73.08;99544.53;5060059;28;70491;-74
2023/10/31 01:38:57;;;;;;;;;2.50;1.00;;;;;12.01;72.92;99546.38;5060279;28;45675;-75
2023/10/31 01:41:22;;;;;;;;;1.00;1.00;;;;;12.00;72.93;99549.09;5077845;28;45979;-74
2023/10/31 01:43:48;;;;;;;;;5.75;1.00;;;;;11.96;72.98;99551.88;5080310;28;58232;-74
2023/10/31 01:46:13;;;;;;;;;4.00;1.00;;;;;11.94;73.42;99555.50;5079154;28;45380;-74
2023/10/31 01:48:40;;;;;;;;;1.75;0.00;;;;;11.93;73.06;99559.91;5080046;28;70147;-74
2023/10/31 01:51:05;;;;;;;;;1.25;1.00;;;;;11.92;73.40;99565.22;5079339;28;45448;-74
2023/10/31 01:53:33;;;;;;;;;2.75;1.00;;;;;11.91;73.52;99561.75;5078821;28;45437;-74
2023/10/31 01:56:01;;;;;;;;;2.50;1.00;;;;;11.87;73.18;99557.56;5056113;28;45315;-74
2023/10/31 01:58:30;;;;;;;;;3.75;2.00;;;;;11.87;73.66;99572.44;5075648;28;45621;-74
2023/10/31 02:00:56;;;;;;;;;3.00;1.00;;;;;11.85;73.08;99574.31;5077647;28;46431;-73
2023/10/31 02:03:21;;;;;;;;;2.00;1.00;;;;;11.84;73.03;99580.47;5061131;28;73341;-73
2023/10/31 02:05:47;;;;;;;;;3.50;2.00;;;;;11.83;73.55;99579.63;5060260;28;45470;-75
2023/10/31 02:08:13;;;;;;;;;1.00;1.00;;;;;11.85;73.48;99584.78;5078452;28;45597;-74
2023/10/31 02:10:38;;;;;;;;;4.00;1.50;;;;;11.88;73.63;99587.22;5080162;28;45448;-75
2023/10/31 02:13:16;;;;;;;;;1.00;1.00;;;;;11.89;73.51;99581.06;5079715;28;70135;-74
2023/10/31 02:15:42;;;;;;;;;1.75;1.75;;;;;11.90;73.23;99583.66;5072370;28;45640;-74
2023/10/31 02:18:08;;;;;;;;;3.00;2.00;;;;;11.92;73.19;99580.97;5062562;28;45328;-74
2023/10/31 02:20:33;;;;;;;;;3.50;2.00;;;;;11.93;72.99;99585.25;5062583;28;46576;-73
2023/10/31 02:22:59;;;;;;;;;0.00;0.00;;;;;11.96;73.14;99582.50;5062909;28;45445;-73
2023/10/31 02:25:24;;;;;;;;;3.00;3.00;;;;;12.00;73.25;99585.78;5074063;28;45386;-73
2023/10/31 02:27:49;;;;;;;;;2.00;2.00;;;;;12.01;73.13;99584.88;5078784;28;73183;-73
2023/10/31 02:30:15;;;;;;;;;4.75;3.00;;;;;12.02;73.31;99590.03;5061406;28;59210;-73
2023/10/31 02:32:41;;;;;;;;;7.50;2.00;;;;;12.02;73.31;99594.44;5053833;28;45431;-73
2023/10/31 02:35:07;;;;;;;;;3.00;3.00;;;;;12.02;73.26;99597.06;5039000;28;45471;-73
2023/10/31 02:37:32;;;;;;;;;4.00;3.75;;;;;12.03;73.23;99598.75;5076700;28;45434;-73
2023/10/31 02:39:59;;;;;;;;;2.50;2.00;;;;;12.03;73.39;99596.13;5052812;28;73243;-73
2023/10/31 02:42:25;;;;;;;;;4.25;3.00;;;;;12.06;73.12;99594.19;5079952;28;45459;-73
2023/10/31 02:44:50;;;;;;;;;3.50;1.00;;;;;12.06;73.53;99591.59;5052398;28;45437;-73
2023/10/31 02:47:15;;;;;;;;;3.00;3.00;;;;;12.06;73.48;99591.59;5060434;28;62590;-73
2023/10/31 02:49:41;;;;;;;;;4.75;3.00;;;;;12.09;73.48;99580.94;5056227;28;75124;-73
2023/10/31 02:52:06;;;;;;;;;4.25;3.75;;;;;12.12;73.46;99585.16;5078403;28;74484;-71
2023/10/31 02:54:31;;;;;;;;;3.25;3.00;;;;;12.13;73.38;99585.09;5042670;28;68109;-73
2023/10/31 02:56:57;;;;;;;;;8.00;3.00;;;;;12.12;73.36;99582.53;5060762;28;73027;-73
2023/10/31 02:59:23;;;;;;;;;4.00;2.00;;;;;12.12;73.35;99572.06;5079776;28;46952;-72
2023/10/31 03:01:48;;;;;;;;;4.00;2.00;;;;;12.11;73.09;99572.97;5059433;28;45438;-73
2023/10/31 03:04:14;;;;;;;;;5.50;4.75;;;;;12.14;73.62;99588.56;5079097;28;45301;-72
2023/10/31 03:06:39;;;;;;;;;5.25;2.75;;;;;12.12;73.31;99585.16;5071305;28;45653;-72
2023/10/31 03:09:04;;;;;;;;;4.00;3.50;;;;;12.11;73.61;99589.56;5060864;28;75584;-72
2023/10/31 03:11:29;;;;;;;;;2.75;2.75;;;;;12.10;73.24;99581.78;5058831;28;68796;-73
2023/10/31 03:13:56;;;;;;;;;4.75;3.00;;;;;12.13;73.80;99589.50;5077385;28;70688;-73
2023/10/31 03:16:21;;;;;;;;;3.25;2.00;;;;;12.12;73.94;99585.16;5056196;28;45636;-72
2023/10/31 03:18:47;;;;;;;;;4.75;4.25;;;;;12.12;73.55;99587.78;5060713;28;47583;-73
2023/10/31 03:21:13;;;;;;;;;6.00;2.00;;;;;12.14;73.82;99588.56;5060040;28;50459;-72
2023/10/31 03:23:38;;;;;;;;;5.75;4.00;;;;;12.19;73.45;99598.81;5075677;28;45561;-72
2023/10/31 03:26:03;;;;;;;;;8.25;4.00;;;;;12.18;73.46;99610.22;5054810;28;66611;-71
2023/10/31 03:28:29;;;;;;;;;5.75;4.00;;;;;12.18;73.42;99613.69;5058372;28;73205;-74
2023/10/31 03:30:54;;;;;;;;;5.75;3.75;;;;;12.20;73.59;99616.22;5053016;28;45918;-71
2023/10/31 03:33:19;;;;;;;;;4.25;4.00;;;;;12.22;73.81;99620.50;5073653;28;67185;-71
2023/10/31 03:35:45;;;;;;;;;3.25;2.50;;;;;12.26;74.00;99629.03;5066433;27;48790;-71
2023/10/31 03:38:11;;;;;;;;;5.00;5.00;;;;;12.27;73.60;99625.47;5059028;28;45337;-71
2023/10/31 03:40:36;;;;;;;;;4.00;3.50;;;;;12.28;73.89;99635.91;5060844;28;45374;-70
2023/10/31 03:43:02;;;;;;;;;3.50;3.50;;;;;12.28;73.61;99624.56;5078261;27;45476;-70
2023/10/31 03:45:27;;;;;;;;;4.00;4.00;;;;;12.26;73.86;99615.94;5072035;28;45295;-71
2023/10/31 03:47:52;;;;;;;;;5.75;4.00;;;;;12.27;73.70;99613.22;5078343;28;45441;-70
2023/10/31 03:50:18;;;;;;;;;5.00;4.00;;;;;12.25;73.66;99612.47;5075673;28;45326;-71
2023/10/31 03:52:43;;;;;;;;;5.00;2.75;;;;;12.30;73.90;99615.66;5063375;28;70522;-71
2023/10/31 03:55:08;;;;;;;;;5.00;5.00;;;;;12.30;74.07;99620.91;5071916;28;45510;-71
2023/10/31 03:57:34;;;;;;;;;8.00;4.00;;;;;12.30;73.72;99623.53;5082784;28;51980;-71
2023/10/31 04:00:00;;;;;;;;;4.00;4.00;;;;;12.29;74.27;99614.00;5082485;28;56539;-71
2023/10/31 04:02:25;;;;;;;;;3.75;3.75;;;;;12.31;74.27;99619.16;5082404;28;45465;-71
2023/10/31 04:04:50;;;;;;;;;7.50;3.75;;;;;12.31;74.17;99627.88;5075527;28;63756;-71
2023/10/31 04:07:15;;;;;;;;;7.25;3.75;;;;;12.31;73.86;99634.91;5053441;28;47845;-71
2023/10/31 04:09:41;;;;;;;;;6.75;3.50;;;;;12.33;74.28;99638.28;5062946;28;72113;-71
2023/10/31 04:12:06;;;;;;;;;6.75;3.00;;;;;12.34;74.11;99647.84;5076803;28;69447;-71
2023/10/31 04:14:32;;;;;;;;;6.00;4.50;;;;;12.35;74.05;99652.16;5079515;28;45196;-71
2023/10/31 04:16:57;;;;;;;;;4.00;3.00;;;;;12.34;74.03;99646.09;5076602;28;75156;-71
2023/10/31 04:19:22;;;;;;;;;6.50;4.00;;;;;12.32;74.44;99642.69;5080741;28;72993;-71
2023/10/31 04:21:48;;;;;;;;;4.00;3.50;;;;;12.37;73.83;99652.09;5063662;28;47400;-71
2023/10/31 04:24:13;;;;;;;;;5.00;3.25;;;;;12.35;74.37;99655.63;5057110;28;72225;-71
2023/10/31 04:26:40;;;;;;;;;4.00;3.00;;;;;12.38;74.07;99661.66;5073533;28;73825;-71
2023/10/31 04:29:05;;;;;;;;;5.25;3.25;;;;;12.38;74.46;99657.28;5064424;28;45362;-71
2023/10/31 04:31:31;;;;;;;;;3.50;3.00;;;;;12.38;74.17;99665.13;5081562;28;69247;-71
2023/10/31 04:33:56;;;;;;;;;6.25;4.00;;;;;12.37;73.91;99666.06;5060248;28;65364;-72
2023/10/31 04:36:21;;;;;;;;;3.00;3.00;;;;;12.37;74.57;99665.22;5067521;28;75579;-71
2023/10/31 04:38:47;;;;;;;;;5.00;3.75;;;;;12.38;74.34;99677.38;5063153;28;45550;-71
2023/10/31 04:41:12;;;;;;;;;7.50;4.00;;;;;12.39;74.06;99677.31;5062797;28;66792;-71
2023/10/31 04:43:41;;;;;;;;;3.00;2.25;;;;;12.39;74.23;99665.97;5062953;28;45570;-71
2023/10/31 04:46:06;;;;;;;;;3.00;3.00;;;;;12.38;74.36;99674.75;5062858;28;47353;-71
2023/10/31 04:48:32;;;;;;;;;4.00;3.00;;;;;12.37;74.57;99679.16;5075081;28;45489;-71
2023/10/31 04:50:58;;;;;;;;;6.75;4.00;;;;;12.38;74.43;99673.00;5061724;28;62271;-71
2023/10/31 04:53:23;;;;;;;;;5.00;3.00;;;;;12.42;74.88;99684.19;5062721;28;50186;-71
2023/10/31 04:55:48;;;;;;;;;4.25;3.00;;;;;12.45;74.35;99689.28;5073498;28;75353;-71
2023/10/31 04:58:14;;;;;;;;;4.75;2.00;;;;;12.46;74.38;99686.56;5080039;28;45200;-71
2023/10/31 05:00:40;;;;;;;;;3.50;2.75;;;;;12.46;74.31;99697.06;5063939;28;45343;-70
2023/10/31 05:03:05;;;;;;;;;5.75;4.00;;;;;12.45;74.34;99691.91;5045493;28;45434;-72
2023/10/31 05:05:30;;;;;;;;;4.75;4.25;;;;;12.47;74.52;99690.91;5067836;28;45458;-71
2023/10/31 05:07:56;;;;;;;;;7.00;4.25;;;;;12.50;74.83;99693.38;5070614;28;68704;-71
2023/10/31 05:10:21;;;;;;;;;5.00;4.00;;;;;12.52;74.56;99696.75;5082319;28;45334;-72
2023/10/31 05:12:46;;;;;;;;;6.25;3.00;;;;;12.54;74.89;99691.44;5079436;28;73283;-72
2023/10/31 05:15:12;;;;;;;;;5.75;3.25;;;;;12.53;75.03;99682.69;5070115;28;74610;-71
2023/10/31 05:17:37;;;;;;;;;4.50;3.00;;;;;12.61;75.46;99686.72;5062209;28;45323;-71
2023/10/31 05:20:03;;;;;;;;;3.00;3.00;;;;;12.60;74.41;99695.50;5062410;28;69347;-71
2023/10/31 05:22:29;;;;;;;;;6.50;3.00;;;;;12.57;75.00;99688.66;5077105;28;45287;-71
2023/10/31 05:24:54;;;;;;;;;6.00;3.00;;;;;12.61;74.82;99689.34;5050815;28;45467;-71
2023/10/31 05:27:20;;;;;;;;;4.25;3.00;;;;;12.63;75.13;99697.97;5076927;27;45391;-71
2023/10/31 05:29:45;;;;;;;;;3.25;3.25;;;;;12.64;74.86;99702.28;5062658;28;45751;-71
2023/10/31 05:32:10;;;;;;;;;3.00;2.00;;;;;12.66;74.92;99703.06;5071910;28;71146;-71
2023/10/31 05:34:36;;;;;;;;;4.50;3.25;;;;;12.69;75.16;99702.91;5074768;28;65649;-72
2023/10/31 05:37:01;;;;;;;;;4.25;3.00;;;;;12.71;75.18;99703.66;5077099;28;45335;-70
2023/10/31 05:39:27;;;;;;;;;6.25;3.25;;;;;12.74;74.79;99706.13;5079904;28;45426;-71
2023/10/31 05:41:52;;;;;;;;;6.75;4.00;;;;;12.76;74.58;99712.16;5079329;28;67391;-71
2023/10/31 05:44:17;;;;;;;;;3.75;3.25;;;;;12.76;75.08;99711.31;5060832;28;45918;-71
2023/10/31 05:46:43;;;;;;;;;5.00;4.00;;;;;12.79;75.14;99714.63;5052663;28;45342;-72
2023/10/31 05:49:08;;;;;;;;;8.50;4.00;;;;;12.78;75.01;99712.91;5080654;28;45929;-71
2023/10/31 05:51:35;;;;;;;;;5.50;5.50;;;;;12.80;74.83;99716.31;5082178;28;45279;-71
2023/10/31 05:54:00;;;;;;;;;5.50;5.00;;;;;12.82;75.04;99709.22;5080248;28;46149;-72
2023/10/31 05:56:25;;;;;;;;;5.00;4.00;;;;;12.83;75.07;99715.31;5058936;28;45777;-71
2023/10/31 05:58:51;;;;;;;;;6.50;4.00;;;;;12.86;75.23;99717.78;5061242;28;68131;-71
2023/10/31 06:01:16;;;;;;;;;5.50;4.75;;;;;12.87;75.06;99729.97;5077399;28;58940;-72
2023/10/31 06:03:45;;;;;;;;;5.75;5.25;;;;;12.88;75.06;99722.00;5058564;28;59133;-72
2023/10/31 06:06:11;;;;;;;;;6.25;4.50;;;;;12.87;75.03;99720.31;5075651;28;45275;-72
2023/10/31 06:08:37;;;;;;;;;5.50;4.00;;;;;12.88;75.31;99718.53;5080189;28;45375;-71
2023/10/31 06:11:03;;;;;;;;;7.75;6.75;;;;;12.88;75.31;99706.25;5078720;28;45505;-71
2023/10/31 06:13:29;;;;;;;;;6.75;3.75;;;;;12.91;75.22;99713.13;5045836;28;47248;-72
2023/10/31 06:15:55;;;;;;;;;8.75;5.00;;;;;12.91;75.36;99716.59;5065794;28;45434;-71
2023/10/31 06:18:20;;;;;;;;;4.50;4.25;;;;;12.90;74.85;99720.13;5062425;28;45448;-71
2023/10/31 06:20:46;;;;;;;;;7.00;3.50;;;;;12.94;74.84;99712.09;5061475;28;61147;-71
2023/10/31 06:23:12;;;;;;;;;6.50;4.75;;;;;12.96;75.07;99718.13;5056664;28;45556;-71
2023/10/31 06:25:37;;;;;;;;;3.50;2.50;;;;;12.96;75.28;99720.75;5041493;28;55489;-71
2023/10/31 06:28:02;;;;;;;;;7.50;4.00;;;;;13.02;74.99;99723.91;5058633;28;45416;-71
2023/10/31 06:30:28;;;;;;;;;7.75;5.75;;;;;13.02;75.03;99726.53;5079623;28;45597;-71
2023/10/31 06:32:53;;;;;;;;;4.00;4.00;;;;;13.04;74.76;99732.53;5059407;28;45433;-72
2023/10/31 06:35:19;;;;;;;;;7.00;5.50;;;;;13.09;74.78;99730.53;5055109;28;45543;-71
2023/10/31 06:37:44;;;;;;;;;5.75;5.50;;;;;13.11;75.13;99731.28;5076499;28;51628;-71
2023/10/31 06:40:10;;;;;;;;;3.75;3.00;;;;;13.13;74.60;99728.56;5078061;28;65520;-71
2023/10/31 06:42:36;;;;;;;;;5.50;3.50;;;;;13.12;74.89;99734.78;5059852;28;45440;-72
2023/10/31 06:45:01;;;;;;;;;3.00;3.00;;;;;13.12;74.47;99742.66;5071946;28;45428;-72
2023/10/31 06:47:27;;;;;;;;;6.25;4.00;;;;;13.10;74.49;99742.75;5060154;28;45541;-76
2023/10/31 06:49:52;;;;;;;;;5.50;3.75;;;;;13.14;74.47;99743.41;5078765;28;71818;-74
2023/10/31 06:52:17;;;;;;;;;3.75;3.00;;;;;13.16;74.01;99740.72;5080649;28;69490;-72
2023/10/31 06:54:43;;;;;;;;;3.75;2.00;;;;;13.11;74.08;99740.94;5065957;28;73219;-75
2023/10/31 06:57:08;;;;;;;;;4.00;2.00;;;;;13.13;74.16;99746.13;5051439;28;45839;-76
2023/10/31 06:59:34;;;;;;;;;3.00;3.00;;;;;13.13;74.26;99741.72;5081650;28;68951;-77
2023/10/31 07:01:59;;;;;;;;;2.25;2.00;;;;;13.14;74.14;99739.91;5069815;28;46823;-79
2023/10/31 07:04:25;;;;;;;;;2.00;2.00;;;;;13.13;73.63;99746.13;5060079;28;45558;-77
2023/10/31 07:06:56;;;;;;;;;3.50;2.75;;;;;13.15;73.83;99744.25;5078982;28;45438;-72
2023/10/31 07:09:22;;;;;;;;;4.25;2.00;;;;;13.17;73.91;99751.13;5079586;28;45306;-75
2023/10/31 07:11:48;;;;;;;;;4.25;2.75;;;;;13.19;73.74;99751.03;5082237;28;48864;-78
2023/10/31 07:14:13;;;;;;;;;4.75;2.00;;;;;13.19;73.53;99754.53;5078081;28;65463;-75
2023/10/31 07:16:38;;;;;;;;;5.00;2.00;;;;;13.23;73.46;99757.84;5055736;28;45223;-81
2023/10/31 07:19:04;;;;;;;;;2.75;1.50;;;;;13.25;73.44;99782.25;5073510;28;46649;-73
2023/10/31 07:21:30;;;;;;;;;2.00;2.00;;;;;13.25;72.69;99777.84;5059866;28;46088;-72
2023/10/31 07:23:55;;;;;;;;;2.00;1.75;;;;;13.22;72.66;99769.28;5077016;28;72743;-77
2023/10/31 07:26:21;;;;;;;;;4.25;3.00;;;;;13.28;72.83;99776.84;5059306;28;45402;-73
2023/10/31 07:28:47;;;;;;;;;5.00;2.00;;;;;13.30;72.99;99786.31;5060668;28;45566;-74
2023/10/31 07:31:13;;;;;;;;;2.25;2.25;;;;;13.34;73.07;99786.19;5060014;28;46332;-77
2023/10/31 07:33:38;;;;;;;;;3.25;1.00;;;;;13.37;72.50;99780.75;5059715;28;45517;-75
2023/10/31 07:36:04;;;;;;;;;3.00;2.00;;;;;13.43;72.71;99790.97;5075208;28;45464;-67
2023/10/31 07:38:29;;;;;;;;;3.50;2.00;;;;;13.45;72.04;99783.84;5077128;28;45504;-67
2023/10/31 07:40:54;;;;;;;;;3.00;2.00;;;;;13.50;72.43;99794.94;5054033;28;51620;-66
2023/10/31 07:43:20;;;;;;;;;2.25;2.25;;;;;13.53;72.14;99799.19;5078125;27;45326;-67
2023/10/31 07:45:45;;;;;;;;;2.25;1.00;;;;;13.53;71.89;99797.41;5074407;28;67887;-67
2023/10/31 07:48:10;;;;;;;;;1.00;1.00;;;;;13.57;71.46;99791.06;5073102;28;45782;-66
2023/10/31 07:50:36;;;;;;;;;2.75;1.00;;;;;13.52;71.82;99790.44;5074589;28;77615;-68
2023/10/31 07:53:01;;;;;;;;;4.75;2.00;;;;;13.56;71.91;99812.16;5066675;28;45233;-67
2023/10/31 07:55:27;;;;;;;;;2.50;1.25;;;;;13.58;71.85;99812.91;5075928;28;45356;-73
2023/10/31 07:57:53;;;;;;;;;1.50;1.50;;;;;13.59;71.36;99815.47;5075937;28;73109;-66
2023/10/31 08:00:18;;;;;;;;;4.00;2.00;;;;;13.60;71.53;99811.09;5068789;28;45494;-68
2023/10/31 08:02:43;;;;;;;;;2.75;2.50;;;;;13.63;71.79;99811.75;5060239;28;45378;-75
2023/10/31 08:05:10;;;;;;;;;3.00;2.25;;;;;13.66;71.47;99818.63;5057074;28;45454;-68
2023/10/31 08:07:35;;;;;;;;;4.25;1.00;;;;;13.67;71.58;99823.81;5078863;27;45370;-68
2023/10/31 08:10:01;;;;;;;;;2.00;1.75;;;;;13.70;71.38;99822.78;5059478;28;45483;-69
2023/10/31 08:12:26;;;;;;;;;2.75;2.25;;;;;13.72;71.33;99817.44;5061555;28;45366;-69
2023/10/31 08:14:51;;;;;;;;;4.00;2.00;;;;;13.71;71.47;99813.97;5057917;28;68013;-80
2023/10/31 08:17:17;;;;;;;;;2.00;2.00;;;;;13.77;70.91;99823.28;5078221;28;67894;-71
2023/10/31 08:19:42;;;;;;;;;2.00;1.00;;;;;13.76;70.76;99837.38;5074004;28;73363;-71
2023/10/31 08:22:08;;;;;;;;;2.00;2.00;;;;;13.81;70.30;99837.97;5060820;28;68995;-70
2023/10/31 08:24:35;;;;;;;;;3.50;2.00;;;;;13.86;70.86;99841.19;5055615;28;45320;-70
2023/10/31 08:27:02;;;;;;;;;2.00;2.00;;;;;13.91;70.91;99841.78;5063531;28;45275;-70
2023/10/31 08:29:27;;;;;;;;;3.00;2.00;;;;;13.94;71.00;99846.88;5060454;28;47962;-70
2023/10/31 08:31:52;;;;;;;;;4.25;1.00;;;;;13.95;70.36;99842.47;5078835;28;45240;-69
2023/10/31 08:34:18;;;;;;;;;2.00;2.00;;;;;13.95;70.21;99848.59;5080358;28;68063;-68
2023/10/31 08:36:43;;;;;;;;;2.25;1.50;;;;;13.96;70.07;99852.06;5058038;28;45434;-69
2023/10/31 08:39:08;;;;;;;;;6.00;2.75;;;;;14.00;70.13;99862.31;5080485;28;66956;-68
2023/10/31 08:41:34;;;;;;;;;3.00;3.00;;;;;14.03;70.21;99866.56;5081337;28;45246;-69
2023/10/31 08:44:01;;;;;;;;;6.00;3.00;;;;;14.06;70.15;99869.03;5063778;28;45283;-69
2023/10/31 08:46:26;;;;;;;;;5.75;2.00;;;;;14.06;69.98;99876.94;5062492;28;45502;-69
2023/10/31 08:48:52;;;;;;;;;3.00;2.75;;;;;14.09;69.51;99874.09;5061356;28;45296;-69
2023/10/31 08:51:17;;;;;;;;;3.50;3.00;;;;;14.08;69.06;99877.69;5060535;28;67837;-69
2023/10/31 08:53:42;;;;;;;;;3.50;2.00;;;;;14.07;69.51;99878.63;5049227;28;45451;-69
2023/10/31 08:56:08;;;;;;;;;4.00;1.00;;;;;14.09;69.45;99878.53;5061719;28;55771;-68
2023/10/31 08:58:33;;;;;;;;;3.00;2.00;;;;;14.08;69.85;99869.81;5062177;28;46074;-68
2023/10/31 09:00:58;;;;;;;;;2.00;1.50;;;;;14.12;69.62;99875.75;5044709;28;45343;-68
2023/10/31 09:03:24;;;;;;;;;2.00;2.00;;;;;14.16;69.79;99885.16;5043560;28;69387;-68
2023/10/31 09:05:49;;;;;;;;;2.75;2.75;;;;;14.19;69.59;99890.25;5044753;28;45217;-69
2023/10/31 09:08:15;;;;;;;;;2.00;2.00;;;;;14.21;69.50;99893.63;5053918;28;60368;-68
2023/10/31 09:10:42;;;;;;;;;2.50;2.00;;;;;14.19;68.83;99900.78;5081423;28;72112;-67
2023/10/31 09:13:08;;;;;;;;;2.75;1.00;;;;;14.17;69.07;99903.50;5081548;28;45302;-69
2023/10/31 09:15:33;;;;;;;;;3.50;1.00;;;;;14.14;69.37;99894.91;5064345;28;45485;-68
2023/10/31 09:17:58;;;;;;;;;4.00;2.00;;;;;14.18;69.24;99907.84;5080595;28;63617;-68
2023/10/31 09:20:24;;;;;;;;;5.75;3.00;;;;;14.22;69.41;99914.59;5081417;28;73136;-68
2023/10/31 09:22:49;;;;;;;;;3.75;2.25;;;;;14.26;69.24;99912.66;5082631;28;45212;-68
2023/10/31 09:25:15;;;;;;;;;4.25;2.00;;;;;14.29;69.26;99916.88;5063309;28;62032;-68
2023/10/31 09:27:41;;;;;;;;;5.25;3.00;;;;;14.32;69.67;99925.47;5072322;28;46047;-68
2023/10/31 09:30:07;;;;;;;;;4.00;4.00;;;;;14.32;68.99;99916.72;5044140;28;45515;-68
2023/10/31 09:32:32;;;;;;;;;4.75;3.25;;;;;14.31;69.36;99930.84;5062036;28;45335;-68
2023/10/31 09:34:58;;;;;;;;;4.75;3.00;;;;;14.32;69.14;99935.16;5060829;28;73149;-67
2023/10/31 09:37:24;;;;;;;;;6.75;3.75;;;;;14.34;69.43;99935.91;5061677;28;46328;-69
2023/10/31 09:39:49;;;;;;;;;6.25;4.50;;;;;14.36;69.48;99934.91;5060691;28;67585;-69
2023/10/31 09:42:14;;;;;;;;;7.25;4.00;;;;;14.39;69.03;99937.34;5060627;28;67058;-69
2023/10/31 09:44:40;;;;;;;;;2.00;2.00;;;;;14.43;69.08;99930.16;5058880;28;67953;-69
2023/10/31 09:47:06;;;;;;;;;2.00;2.00;;;;;14.48;69.36;99946.50;5080189;28;61106;-68
2023/10/31 09:49:31;;;;;;;;;3.00;2.00;;;;;14.53;68.92;99948.91;5062657;28;45287;-69
2023/10/31 09:51:57;;;;;;;;;2.00;2.00;;;;;14.57;68.89;99951.28;5080877;28;45483;-67
2023/10/31 09:54:24;;;;;;;;;3.50;1.75;;;;;14.60;68.24;99945.84;5081753;28;45244;-68
2023/10/31 09:56:49;;;;;;;;;3.25;1.50;;;;;14.64;68.47;99950.97;5063528;28;46369;-69
2023/10/31 09:59:15;;;;;;;;;3.50;2.25;;;;;14.66;68.61;99952.59;5063297;28;55481;-68
2023/10/31 10:01:41;;;;;;;;;7.00;4.25;;;;;14.72;68.51;99968.03;5080807;28;45358;-68
2023/10/31 10:04:07;;;;;;;;;4.25;2.25;;;;;14.77;67.74;99967.78;5081899;28;45275;-69
2023/10/31 10:06:32;;;;;;;;;5.50;2.00;;;;;14.86;67.49;99971.69;5079595;28;46377;-68
2023/10/31 10:08:58;;;;;;;;;6.00;3.00;;;;;14.94;68.27;99969.44;5080277;28;45394;-69
2023/10/31 10:11:24;;;;;;;;;4.00;3.25;;;;;15.06;67.63;99974.00;5062142;28;71597;-68
2023/10/31 10:13:52;;;;;;;;;3.25;2.00;;;;;15.17;66.89;99971.59;5081683;28;45314;-68
2023/10/31 10:16:31;;;;;;;;;3.00;1.00;;;;;15.23;66.25;99974.78;5081429;28;45275;-68
2023/10/31 10:18:56;;;;;;;;;2.75;2.00;;;;;15.29;66.91;99972.66;5080022;28;46058;-68
2023/10/31 10:21:22;;;;;;;;;4.00;3.25;;;;;15.29;66.27;99979.72;5080536;28;45425;-67
2023/10/31 10:23:49;;;;;;;;;2.25;2.00;;;;;15.38;66.80;99976.53;5080484;28;70560;-69
2023/10/31 10:26:14;;;;;;;;;3.25;2.00;;;;;15.43;66.13;99981.56;5062851;28;47291;-68
2023/10/31 10:28:40;;;;;;;;;8.00;2.00;;;;;15.44;66.43;99976.19;5058742;28;45283;-68
2023/10/31 10:31:06;;;;;;;;;2.00;2.00;;;;;15.44;66.33;99977.94;5060082;28;45247;-68
2023/10/31 10:33:33;;;;;;;;;4.00;4.00;;;;;15.44;66.10;99984.09;5059891;28;45370;-68
2023/10/31 10:35:59;;;;;;;;;2.50;2.00;;;;;15.40;65.82;99979.94;5042668;28;45319;-68
2023/10/31 10:38:25;;;;;;;;;3.00;3.00;;;;;15.46;64.53;99984.84;5059648;28;45204;-68
2023/10/31 10:40:51;;;;;;;;;3.50;1.25;;;;;15.52;65.18;99981.84;5059511;28;45255;-68
2023/10/31 10:43:26;;;;;;;;;5.25;3.00;;;;;15.65;65.40;99997.78;5042262;28;60732;-68
2023/10/31 10:45:56;;;;;;;;;6.00;4.00;;;;;15.73;64.81;99995.53;5059733;28;45397;-68
2023/10/31 10:48:23;;;;;;;;;4.75;4.00;;;;;15.77;64.15;100006.78;5060094;28;45447;-69
2023/10/31 10:50:57;;;;;;;;;2.00;1.50;;;;;15.78;63.72;100008.47;5060940;28;45168;-67
2023/10/31 10:53:26;;;;;;;;;2.75;2.00;;;;;15.80;63.92;100011.88;5059861;28;45325;-68
2023/10/31 10:55:56;;;;;;;;;2.00;2.00;;;;;15.84;64.09;100008.09;5058045;28;47771;-68
2023/10/31 10:58:27;;;;;;;;;4.00;1.00;;;;;15.92;64.32;100011.13;5042576;28;45663;-67
2023/10/31 11:00:54;;;;;;;;;3.00;2.75;;;;;15.92;63.69;100016.41;5042577;28;45351;-67
2023/10/31 11:03:21;;;;;;;;;5.00;3.00;;;;;15.93;64.33;100018.09;5041754;28;45648;-67
2023/10/31 11:05:47;;;;;;;;;1.00;1.00;;;;;15.93;63.97;100018.09;5059242;28;45388;-67
2023/10/31 11:08:12;;;;;;;;;6.00;2.25;;;;;15.97;64.17;100015.28;5048076;28;62280;-67
2023/10/31 11:10:38;;;;;;;;;8.50;4.25;;;;;16.03;64.11;100015.75;5037207;28;71453;-68
2023/10/31 11:13:03;;;;;;;;;5.75;3.75;;;;;16.07;64.42;100019.03;5078264;28;75134;-68
2023/10/31 11:15:29;;;;;;;;;8.00;3.00;;;;;16.12;62.86;100024.91;5062198;28;53004;-68
2023/10/31 11:17:55;;;;;;;;;2.50;1.50;;;;;16.16;62.25;100022.91;5078410;28;72054;-68
2023/10/31 11:20:20;;;;;;;;;2.00;2.00;;;;;16.17;62.65;100016.72;5078503;28;67697;-68
2023/10/31 11:22:49;;;;;;;;;5.00;2.25;;;;;16.21;63.35;100031.41;5079137;28;45389;-68
2023/10/31 11:25:19;;;;;;;;;3.75;2.50;;;;;16.23;61.46;100025.06;5078975;28;46328;-68